Time;durP1;ratioP1;P1;durP2;ratioP2;P2;SDS_P1;SDS_P2;PMS_P1;PMS_P2;Temp;Humidity;BMP_temperature;BMP_pressure;BME280_temperature;BME280_humidity;BME280_pressure;Samples;Min_cycle;Max_cycle;Signal;HPM_P1;HPM_P2
2023/12/30 00:01:47;;;;;;;;;2.25;0.25;;;;;7.81;80.82;100784.69;4932470;29;11299;-65
2023/12/30 00:04:14;;;;;;;;;0.25;0.00;;;;;7.85;80.49;100791.38;4932910;29;10412;-65
2023/12/30 00:06:41;;;;;;;;;0.50;0.50;;;;;7.86;80.12;100792.22;4931421;29;10410;-65
2023/12/30 00:09:07;;;;;;;;;0.00;0.00;;;;;7.88;79.94;100788.34;4934079;29;10476;-65
2023/12/30 00:11:34;;;;;;;;;0.00;0.00;;;;;7.88;80.07;100791.03;4931906;28;10276;-65
2023/12/30 00:14:00;;;;;;;;;0.25;0.25;;;;;7.83;79.82;100789.91;4932637;29;10362;-65
2023/12/30 00:16:28;;;;;;;;;0.00;0.00;;;;;7.81;79.41;100803.44;4932602;29;10410;-65
2023/12/30 00:18:55;;;;;;;;;0.00;0.00;;;;;7.78;79.76;100792.25;4937610;29;10260;-66
2023/12/30 00:21:22;;;;;;;;;0.00;0.00;;;;;7.79;79.34;100794.78;4931315;29;10253;-66
2023/12/30 00:23:49;;;;;;;;;0.00;0.00;;;;;7.82;79.41;100798.91;4932597;29;10381;-65
2023/12/30 00:26:20;;;;;;;;;0.00;0.00;;;;;7.85;78.61;100791.38;4940766;29;10436;-66
2023/12/30 00:28:58;;;;;;;;;0.75;0.75;;;;;7.85;78.54;100801.25;4938619;29;10237;-66
2023/12/30 00:31:29;;;;;;;;;2.75;1.00;;;;;7.75;78.10;100785.41;4930834;29;10972;-65
2023/12/30 00:34:01;;;;;;;;;3.50;0.25;;;;;7.62;78.28;100786.00;4941439;29;10493;-66
2023/12/30 00:36:28;;;;;;;;;0.00;0.00;;;;;7.67;77.91;100802.38;4935602;29;11023;-65
2023/12/30 00:38:56;;;;;;;;;0.25;0.25;;;;;7.75;77.60;100787.28;4948249;29;10295;-66
2023/12/30 00:41:27;;;;;;;;;2.00;0.75;;;;;7.72;77.98;100803.69;4933644;28;10380;-66
2023/12/30 00:43:53;;;;;;;;;2.00;1.00;;;;;7.75;77.19;100800.66;4935839;29;10233;-66
2023/12/30 00:46:21;;;;;;;;;0.25;0.25;;;;;7.68;77.65;100806.72;4934994;29;10418;-65
2023/12/30 00:48:48;;;;;;;;;0.50;0.00;;;;;7.61;76.71;100811.09;4935254;28;10197;-65
2023/12/30 00:51:24;;;;;;;;;0.00;0.00;;;;;7.67;76.80;100823.81;4940796;28;10282;-65
2023/12/30 00:53:51;;;;;;;;;0.50;0.00;;;;;7.68;76.64;100817.44;4940789;29;10443;-66
2023/12/30 00:56:18;;;;;;;;;1.00;1.00;;;;;7.70;77.52;100819.94;4934249;29;10387;-65
2023/12/30 00:58:45;;;;;;;;;3.25;1.00;;;;;7.76;76.83;100823.75;4931043;28;10425;-65
2023/12/30 01:01:12;;;;;;;;;0.00;0.00;;;;;7.79;77.17;100829.59;4909545;29;10338;-66
2023/12/30 01:03:40;;;;;;;;;1.50;1.50;;;;;7.78;77.04;100835.97;4931824;28;10499;-65
2023/12/30 01:06:08;;;;;;;;;1.50;0.75;;;;;7.80;77.10;100842.00;4924983;28;10443;-65
2023/12/30 01:08:34;;;;;;;;;1.00;0.00;;;;;7.74;77.12;100839.16;4949395;28;10646;-66
2023/12/30 01:11:02;;;;;;;;;0.50;0.00;;;;;7.75;77.81;100828.28;4938535;28;10464;-66
2023/12/30 01:13:29;;;;;;;;;1.00;0.00;;;;;7.65;77.31;100822.31;4933729;29;10522;-66
2023/12/30 01:15:56;;;;;;;;;0.75;0.75;;;;;7.60;77.16;100832.72;4932346;29;10529;-66
2023/12/30 01:18:24;;;;;;;;;0.00;0.00;;;;;7.61;76.73;100837.06;4947536;28;10409;-66
2023/12/30 01:20:52;;;;;;;;;1.00;0.00;;;;;7.69;76.73;100835.16;4937019;28;10442;-65
2023/12/30 01:23:18;;;;;;;;;0.00;0.00;;;;;7.69;77.00;100829.81;4934100;29;10374;-66
2023/12/30 01:25:45;;;;;;;;;0.00;0.00;;;;;7.72;76.56;100842.03;4933904;29;10484;-65
2023/12/30 01:28:12;;;;;;;;;0.00;0.00;;;;;7.76;76.43;100840.66;4935621;29;10416;-65
2023/12/30 01:30:39;;;;;;;;;0.00;0.00;;;;;7.75;76.48;100843.53;4935676;28;10740;-66
2023/12/30 01:33:06;;;;;;;;;1.00;1.00;;;;;7.63;76.22;100848.44;4929267;29;10330;-65
2023/12/30 01:35:34;;;;;;;;;0.00;0.00;;;;;7.63;76.88;100851.13;4916911;29;10270;-65
2023/12/30 01:38:01;;;;;;;;;0.00;0.00;;;;;7.68;76.42;100854.94;4938216;28;11474;-65
2023/12/30 01:40:30;;;;;;;;;0.00;0.00;;;;;7.76;76.35;100846.03;4946376;29;10343;-66
2023/12/30 01:42:57;;;;;;;;;0.00;0.00;;;;;7.74;76.60;100864.16;4933393;29;10411;-66
2023/12/30 01:45:24;;;;;;;;;1.00;1.00;;;;;7.67;76.28;100868.53;4934971;29;10492;-65
2023/12/30 01:47:51;;;;;;;;;0.00;0.00;;;;;7.61;76.05;100874.56;4934461;29;10414;-65
2023/12/30 01:50:18;;;;;;;;;0.00;0.00;;;;;7.58;76.02;100869.56;4918716;29;10430;-64
2023/12/30 01:52:47;;;;;;;;;1.00;0.00;;;;;7.66;76.47;100866.84;4934416;29;10474;-66
2023/12/30 01:55:15;;;;;;;;;1.25;0.00;;;;;7.61;76.01;100858.50;4934117;29;10552;-66
2023/12/30 01:57:44;;;;;;;;;1.00;0.00;;;;;7.60;76.14;100875.59;4932999;29;10372;-66
2023/12/30 02:00:19;;;;;;;;;2.00;0.00;;;;;7.59;76.04;100880.09;4935023;29;10640;-66
2023/12/30 02:02:49;;;;;;;;;2.25;1.00;;;;;7.66;76.34;100877.56;4932770;28;10619;-66
2023/12/30 02:05:16;;;;;;;;;0.00;0.00;;;;;7.67;76.21;100869.34;4929668;29;10390;-66
2023/12/30 02:07:45;;;;;;;;;0.50;0.25;;;;;7.67;76.01;100884.59;4918802;29;10386;-66
2023/12/30 02:10:12;;;;;;;;;0.00;0.00;;;;;7.65;76.14;100884.75;4932385;29;10436;-66
2023/12/30 02:12:39;;;;;;;;;0.75;0.75;;;;;7.67;76.34;100879.25;4931235;29;10472;-65
2023/12/30 02:15:13;;;;;;;;;0.75;0.75;;;;;7.63;76.49;100888.63;4948875;29;10512;-66
2023/12/30 02:17:40;;;;;;;;;1.00;1.00;;;;;7.56;76.06;100885.81;4923750;29;10576;-65
2023/12/30 02:20:07;;;;;;;;;1.00;0.00;;;;;7.48;76.53;100885.84;4925561;29;10446;-66
2023/12/30 02:22:34;;;;;;;;;0.00;0.00;;;;;7.51;76.80;100890.03;4933076;29;10594;-65
2023/12/30 02:25:02;;;;;;;;;1.50;0.00;;;;;7.54;76.23;100897.72;4931991;29;10551;-66
2023/12/30 02:27:29;;;;;;;;;2.25;0.00;;;;;7.60;76.73;100897.00;4930966;29;10417;-66
2023/12/30 02:29:56;;;;;;;;;0.75;0.00;;;;;7.59;76.57;100908.75;4932503;29;10567;-65
2023/12/30 02:32:22;;;;;;;;;0.00;0.00;;;;;7.60;76.09;100905.88;4935953;28;11212;-65
2023/12/30 02:34:49;;;;;;;;;0.00;0.00;;;;;7.60;76.24;100905.03;4933677;29;11255;-66
2023/12/30 02:37:16;;;;;;;;;1.00;0.00;;;;;7.63;76.43;100912.75;4927263;29;10487;-66
2023/12/30 02:39:43;;;;;;;;;1.00;0.00;;;;;7.63;76.29;100916.25;4929371;29;10639;-65
2023/12/30 02:42:09;;;;;;;;;2.00;0.00;;;;;7.66;76.04;100912.41;4934298;29;10643;-66
2023/12/30 02:44:36;;;;;;;;;2.00;1.25;;;;;7.56;75.68;100917.13;4933137;29;10551;-66
2023/12/30 02:47:03;;;;;;;;;1.00;0.75;;;;;7.57;75.80;100924.13;4934162;29;10661;-66
2023/12/30 02:49:32;;;;;;;;;0.00;0.00;;;;;7.56;75.48;100925.16;4935545;28;11297;-65
2023/12/30 02:51:59;;;;;;;;;0.00;0.00;;;;;7.60;75.79;100916.59;4922132;29;10554;-66
2023/12/30 02:54:28;;;;;;;;;1.00;0.00;;;;;7.61;75.62;100922.78;4929084;28;10559;-65
2023/12/30 02:56:55;;;;;;;;;0.25;0.25;;;;;7.62;75.67;100928.00;4932605;29;10491;-66
2023/12/30 02:59:22;;;;;;;;;0.00;0.00;;;;;7.63;75.50;100926.13;4928399;29;10632;-65
2023/12/30 03:01:49;;;;;;;;;1.00;0.25;;;;;7.61;75.21;100925.47;4930886;29;10390;-65
2023/12/30 03:04:15;;;;;;;;;1.00;0.50;;;;;7.64;75.62;100925.13;4933699;28;10319;-66
2023/12/30 03:06:43;;;;;;;;;0.25;0.00;;;;;7.67;76.09;100930.16;4919465;29;10510;-65
2023/12/30 03:09:09;;;;;;;;;0.25;0.00;;;;;7.58;75.37;100931.19;4918232;29;11385;-66
2023/12/30 03:11:36;;;;;;;;;0.00;0.00;;;;;7.55;76.28;100924.31;4914234;29;10462;-66
2023/12/30 03:14:03;;;;;;;;;2.00;0.00;;;;;7.61;76.34;100931.66;4914602;29;10686;-66
2023/12/30 03:16:30;;;;;;;;;1.00;0.25;;;;;7.57;76.20;100932.16;4914750;29;10459;-66
2023/12/30 03:18:57;;;;;;;;;0.00;0.00;;;;;7.58;76.90;100929.34;4934084;29;10575;-66
2023/12/30 03:21:24;;;;;;;;;1.50;1.25;;;;;7.63;76.88;100937.69;4932245;29;10467;-66
2023/12/30 03:23:51;;;;;;;;;0.50;0.50;;;;;7.60;76.41;100921.94;4931903;29;10501;-66
2023/12/30 03:26:17;;;;;;;;;0.00;0.00;;;;;7.56;76.96;100920.63;4928609;29;10478;-66
2023/12/30 03:28:44;;;;;;;;;0.00;0.00;;;;;7.60;76.86;100926.47;4923903;28;10665;-66
2023/12/30 03:31:22;;;;;;;;;1.75;1.00;;;;;7.57;77.23;100926.81;4927912;29;10416;-66
2023/12/30 03:33:49;;;;;;;;;1.00;0.00;;;;;7.55;77.36;100928.84;4930579;29;10556;-66
2023/12/30 03:36:16;;;;;;;;;0.25;0.25;;;;;7.50;77.16;100932.03;4930561;29;11005;-66
2023/12/30 03:38:46;;;;;;;;;4.25;1.75;;;;;7.43;76.46;100925.69;4928579;28;10454;-66
2023/12/30 03:41:13;;;;;;;;;3.00;0.00;;;;;7.50;77.09;100931.22;4924494;29;10437;-65
2023/12/30 03:43:40;;;;;;;;;1.00;0.00;;;;;7.48;77.27;100927.84;4929102;29;10491;-66
2023/12/30 03:46:09;;;;;;;;;0.50;0.50;;;;;7.44;76.58;100933.56;4931300;29;10389;-65
2023/12/30 03:48:36;;;;;;;;;0.25;0.25;;;;;7.48;76.90;100934.03;4931335;29;10400;-66
2023/12/30 03:51:02;;;;;;;;;0.00;0.00;;;;;7.49;76.18;100940.22;4932190;29;10382;-65
2023/12/30 03:53:29;;;;;;;;;0.75;0.75;;;;;7.47;76.97;100937.75;4927702;29;10400;-66
2023/12/30 03:55:56;;;;;;;;;1.00;0.00;;;;;7.40;76.26;100936.75;4914102;29;10556;-66
2023/12/30 03:58:23;;;;;;;;;2.75;0.00;;;;;7.43;76.52;100939.09;4925924;29;10458;-66
2023/12/30 04:00:50;;;;;;;;;1.00;1.00;;;;;7.41;76.53;100941.94;4929484;29;10505;-65
2023/12/30 04:03:16;;;;;;;;;0.00;0.00;;;;;7.45;75.68;100945.09;4931660;29;11212;-63
2023/12/30 04:05:43;;;;;;;;;0.00;0.00;;;;;7.47;76.00;100942.25;4930979;29;10535;-65
2023/12/30 04:08:10;;;;;;;;;2.00;1.00;;;;;7.46;76.43;100948.63;4930027;29;10580;-65
2023/12/30 04:10:37;;;;;;;;;0.75;0.75;;;;;7.45;76.15;100947.78;4931944;29;10408;-66
2023/12/30 04:13:04;;;;;;;;;0.00;0.00;;;;;7.42;76.36;100948.13;4932789;29;11233;-66
2023/12/30 04:15:31;;;;;;;;;0.00;0.00;;;;;7.40;76.80;100944.78;4947414;28;10201;-65
2023/12/30 04:17:58;;;;;;;;;0.00;0.00;;;;;7.33;75.97;100933.94;4932354;28;10391;-66
2023/12/30 04:20:25;;;;;;;;;1.25;0.00;;;;;7.38;76.25;100942.28;4923136;28;10391;-66
2023/12/30 04:22:51;;;;;;;;;3.75;1.50;;;;;7.43;75.20;100939.91;4934771;29;10523;-66
2023/12/30 04:25:18;;;;;;;;;0.00;0.00;;;;;7.45;75.83;100950.44;4938317;29;10546;-66
2023/12/30 04:27:45;;;;;;;;;2.00;0.00;;;;;7.49;75.93;100951.78;4930424;28;10522;-66
2023/12/30 04:30:12;;;;;;;;;2.00;0.00;;;;;7.47;75.30;100956.50;4925498;29;10546;-66
2023/12/30 04:32:39;;;;;;;;;1.00;1.00;;;;;7.42;75.53;100959.69;4930924;29;10474;-66
2023/12/30 04:35:06;;;;;;;;;0.00;0.00;;;;;7.41;75.81;100960.69;4935680;29;10685;-65
2023/12/30 04:37:32;;;;;;;;;1.25;0.25;;;;;7.47;75.65;100961.00;4933095;29;10613;-66
2023/12/30 04:39:59;;;;;;;;;1.75;0.00;;;;;7.50;75.85;100958.00;4934743;28;11184;-65
2023/12/30 04:42:26;;;;;;;;;0.00;0.00;;;;;7.45;75.49;100958.47;4936702;29;10501;-66
2023/12/30 04:44:52;;;;;;;;;1.00;0.00;;;;;7.50;76.01;100960.69;4935334;29;10605;-66
2023/12/30 04:47:19;;;;;;;;;0.25;0.25;;;;;7.44;76.40;100959.50;4935028;29;10476;-65
2023/12/30 04:49:46;;;;;;;;;0.00;0.00;;;;;7.48;76.28;100960.00;4935075;29;10387;-66
2023/12/30 04:52:13;;;;;;;;;1.00;1.00;;;;;7.45;76.23;100966.53;4935439;28;10460;-66
2023/12/30 04:54:42;;;;;;;;;0.00;0.00;;;;;7.49;76.48;100961.66;4950861;28;11133;-66
2023/12/30 04:57:09;;;;;;;;;0.00;0.00;;;;;7.38;75.99;100965.56;4934622;29;10679;-65
2023/12/30 04:59:36;;;;;;;;;0.00;0.00;;;;;7.36;76.38;100965.72;4926998;29;10494;-66
2023/12/30 05:02:03;;;;;;;;;0.00;0.00;;;;;7.35;76.22;100971.25;4934492;29;11319;-66
2023/12/30 05:04:30;;;;;;;;;0.00;0.00;;;;;7.36;76.01;100973.75;4936766;28;10478;-66
2023/12/30 05:06:57;;;;;;;;;1.00;0.00;;;;;7.34;76.16;100975.78;4934266;29;10619;-66
2023/12/30 05:09:24;;;;;;;;;0.00;0.00;;;;;7.38;76.37;100978.94;4934008;29;10475;-66
2023/12/30 05:11:51;;;;;;;;;0.00;0.00;;;;;7.36;75.75;100978.25;4926799;29;10556;-65
2023/12/30 05:14:19;;;;;;;;;1.00;1.00;;;;;7.33;76.04;100987.50;4932882;29;10353;-66
2023/12/30 05:16:46;;;;;;;;;0.00;0.00;;;;;7.36;76.24;100984.44;4929496;28;10400;-66
2023/12/30 05:19:13;;;;;;;;;0.00;0.00;;;;;7.39;75.99;100985.97;4926338;29;10496;-66
2023/12/30 05:21:40;;;;;;;;;0.00;0.00;;;;;7.35;76.93;100984.63;4935168;29;10401;-66
2023/12/30 05:24:08;;;;;;;;;0.00;0.00;;;;;7.36;76.75;100987.13;4934646;29;10391;-66
2023/12/30 05:26:35;;;;;;;;;1.50;0.50;;;;;7.32;76.49;100980.44;4931472;28;10653;-66
2023/12/30 05:29:01;;;;;;;;;1.75;1.00;;;;;7.29;76.68;100993.31;4937036;28;10545;-65
2023/12/30 05:31:28;;;;;;;;;0.00;0.00;;;;;7.34;76.23;100993.69;4931454;29;10592;-66
2023/12/30 05:33:55;;;;;;;;;0.00;0.00;;;;;7.30;76.41;100990.50;4933903;29;10468;-65
2023/12/30 05:36:22;;;;;;;;;0.00;0.00;;;;;7.31;77.10;101000.19;4935610;29;10453;-66
2023/12/30 05:38:48;;;;;;;;;1.00;1.00;;;;;7.29;76.59;100999.53;4934299;29;11339;-66
2023/12/30 05:41:15;;;;;;;;;0.25;0.25;;;;;7.25;76.34;100998.22;4951902;28;10594;-65
2023/12/30 05:43:41;;;;;;;;;2.50;0.50;;;;;7.25;76.20;101005.38;4927576;29;10575;-65
2023/12/30 05:46:15;;;;;;;;;0.00;0.00;;;;;7.24;76.28;100999.19;4934228;29;10409;-65
2023/12/30 05:48:43;;;;;;;;;0.00;0.00;;;;;7.26;75.94;101007.06;4935794;28;10648;-63
2023/12/30 05:51:11;;;;;;;;;0.00;0.00;;;;;7.27;75.90;101008.75;4926069;29;10781;-66
2023/12/30 05:53:39;;;;;;;;;0.00;0.00;;;;;7.24;75.67;101017.94;4932964;29;10512;-65
2023/12/30 05:56:07;;;;;;;;;0.50;0.00;;;;;7.21;76.21;101017.44;4932966;29;10634;-64
2023/12/30 05:58:37;;;;;;;;;0.75;0.00;;;;;7.23;76.18;101015.44;4928217;29;10598;-65
2023/12/30 06:01:04;;;;;;;;;0.00;0.00;;;;;7.13;75.32;101020.94;4927720;29;10504;-65
2023/12/30 06:03:31;;;;;;;;;1.75;1.75;;;;;7.10;75.35;101011.44;4933011;28;10564;-65
2023/12/30 06:05:58;;;;;;;;;1.00;0.25;;;;;7.13;75.75;101015.59;4931819;29;10670;-65
2023/12/30 06:08:25;;;;;;;;;0.00;0.00;;;;;7.18;75.74;101014.09;4932894;29;10649;-63
2023/12/30 06:10:53;;;;;;;;;0.00;0.00;;;;;7.18;75.20;101013.28;4937337;29;10597;-65
2023/12/30 06:13:20;;;;;;;;;0.75;0.00;;;;;7.17;75.49;101023.16;4931144;29;10534;-66
2023/12/30 06:15:49;;;;;;;;;1.25;0.75;;;;;7.20;74.96;101021.94;4928152;29;10502;-65
2023/12/30 06:18:16;;;;;;;;;1.75;0.00;;;;;7.22;74.54;101019.97;4935491;28;10575;-64
2023/12/30 06:20:45;;;;;;;;;0.75;0.00;;;;;7.23;75.21;101021.63;4937952;28;10720;-64
2023/12/30 06:23:12;;;;;;;;;1.75;0.00;;;;;7.23;75.13;101026.16;4926032;29;10467;-62
2023/12/30 06:25:39;;;;;;;;;0.00;0.00;;;;;7.21;74.57;101023.66;4933930;29;10543;-64
2023/12/30 06:28:06;;;;;;;;;2.00;0.00;;;;;7.22;74.80;101024.47;4933198;28;10529;-64
2023/12/30 06:30:33;;;;;;;;;0.00;0.00;;;;;7.23;74.78;101029.66;4938053;28;10564;-63
2023/12/30 06:33:06;;;;;;;;;0.00;0.00;;;;;7.22;74.49;101032.50;4927313;29;10568;-66
2023/12/30 06:35:34;;;;;;;;;1.00;1.00;;;;;7.18;74.60;101032.00;4927454;29;10488;-65
2023/12/30 06:38:01;;;;;;;;;0.00;0.00;;;;;7.16;74.84;101028.66;4931870;29;10537;-62
2023/12/30 06:40:28;;;;;;;;;0.00;0.00;;;;;7.15;74.37;101032.34;4931617;29;10533;-65
2023/12/30 06:42:55;;;;;;;;;0.00;0.00;;;;;7.12;74.57;101024.63;4934048;29;10603;-63
2023/12/30 06:45:21;;;;;;;;;0.00;0.00;;;;;7.17;74.83;101025.81;4929589;29;10561;-65
2023/12/30 06:47:48;;;;;;;;;0.25;0.25;;;;;7.17;74.72;101027.63;4927892;29;10551;-65
2023/12/30 06:50:15;;;;;;;;;1.25;0.75;;;;;7.17;74.81;101028.50;4930635;29;10594;-64
2023/12/30 06:52:45;;;;;;;;;0.00;0.00;;;;;7.23;74.41;101029.66;4933790;29;10561;-65
2023/12/30 06:55:13;;;;;;;;;0.00;0.00;;;;;7.17;75.42;101027.63;4931807;29;10723;-65
2023/12/30 06:57:51;;;;;;;;;0.50;0.00;;;;;7.21;75.04;101037.03;4938338;29;10619;-65
2023/12/30 07:00:18;;;;;;;;;0.00;0.00;;;;;7.21;75.14;101033.50;4934581;29;10643;-65
2023/12/30 07:02:45;;;;;;;;;0.00;0.00;;;;;7.26;75.24;101032.00;4933670;29;10559;-65
2023/12/30 07:05:11;;;;;;;;;0.00;0.00;;;;;7.21;75.67;101034.34;4926539;29;10569;-65
2023/12/30 07:07:38;;;;;;;;;0.00;0.00;;;;;7.11;75.29;101039.84;4932403;29;10592;-66
2023/12/30 07:10:05;;;;;;;;;0.00;0.00;;;;;7.13;75.89;101037.00;4941087;29;10506;-65
2023/12/30 07:12:32;;;;;;;;;0.25;0.00;;;;;7.18;76.32;101029.34;4931630;29;10702;-65
2023/12/30 07:14:59;;;;;;;;;0.75;0.75;;;;;7.15;75.68;101027.81;4938596;29;10545;-65
2023/12/30 07:17:26;;;;;;;;;0.25;0.25;;;;;7.13;75.67;101028.97;4932666;29;10731;-63
2023/12/30 07:19:53;;;;;;;;;0.50;0.50;;;;;7.14;76.24;101039.53;4932334;29;10796;-65
2023/12/30 07:22:20;;;;;;;;;0.00;0.00;;;;;7.21;75.84;101036.16;4920144;29;10585;-65
2023/12/30 07:24:46;;;;;;;;;1.00;1.00;;;;;7.18;75.84;101035.53;4933585;29;10630;-65
2023/12/30 07:27:14;;;;;;;;;0.25;0.25;;;;;7.15;75.71;101046.56;4932823;29;10713;-65
2023/12/30 07:29:41;;;;;;;;;0.00;0.00;;;;;7.14;75.84;101046.72;4929972;28;10642;-65
2023/12/30 07:32:08;;;;;;;;;1.75;0.75;;;;;7.18;75.85;101056.09;4931774;29;10733;-65
2023/12/30 07:34:34;;;;;;;;;1.50;0.25;;;;;7.17;76.05;101054.41;4933302;29;10633;-65
2023/12/30 07:37:01;;;;;;;;;1.00;0.00;;;;;7.20;76.08;101070.13;4931920;29;10633;-64
2023/12/30 07:39:28;;;;;;;;;0.00;0.00;;;;;7.23;76.73;101071.66;4932593;29;10677;-65
2023/12/30 07:41:55;;;;;;;;;1.00;1.00;;;;;7.21;76.66;101073.66;4933204;28;10701;-65
2023/12/30 07:44:21;;;;;;;;;0.75;0.75;;;;;7.19;77.09;101079.19;4930257;29;10589;-65
2023/12/30 07:46:48;;;;;;;;;1.75;0.25;;;;;7.17;77.10;101084.72;4932943;28;11396;-65
2023/12/30 07:49:17;;;;;;;;;0.00;0.00;;;;;7.19;76.95;101077.34;4928751;29;10750;-65
2023/12/30 07:51:44;;;;;;;;;0.00;0.00;;;;;7.17;76.52;101089.22;4931792;29;10611;-65
2023/12/30 07:54:10;;;;;;;;;2.50;0.00;;;;;7.18;77.09;101089.06;4931498;29;10702;-65
2023/12/30 07:56:37;;;;;;;;;0.00;0.00;;;;;7.24;76.63;101089.41;4933136;29;10673;-64
2023/12/30 07:59:03;;;;;;;;;1.00;0.00;;;;;7.27;76.67;101086.38;4932380;29;10643;-65
2023/12/30 08:01:30;;;;;;;;;0.25;0.25;;;;;7.21;77.07;101090.59;4932080;29;10647;-65
2023/12/30 08:03:57;;;;;;;;;0.00;0.00;;;;;7.24;77.40;101089.41;4934365;29;10457;-65
2023/12/30 08:06:24;;;;;;;;;0.00;0.00;;;;;7.28;76.75;101102.28;4933099;29;10702;-65
2023/12/30 08:08:51;;;;;;;;;0.25;0.25;;;;;7.31;76.94;101101.94;4931746;29;10658;-65
2023/12/30 08:11:17;;;;;;;;;0.00;0.00;;;;;7.34;76.69;101108.81;4931719;29;10643;-65
2023/12/30 08:13:44;;;;;;;;;0.00;0.00;;;;;7.35;76.87;101111.31;4931581;29;10547;-63
2023/12/30 08:16:11;;;;;;;;;0.00;0.00;;;;;7.34;76.97;101103.47;4938789;29;10622;-65
2023/12/30 08:18:37;;;;;;;;;0.00;0.00;;;;;7.37;76.93;101106.66;4931645;29;10443;-65
2023/12/30 08:21:04;;;;;;;;;0.00;0.00;;;;;7.36;77.28;101101.44;4932895;29;10495;-65
2023/12/30 08:23:31;;;;;;;;;1.25;0.00;;;;;7.38;76.92;101116.34;4931373;29;10777;-65
2023/12/30 08:25:57;;;;;;;;;0.00;0.00;;;;;7.41;76.90;101116.03;4929125;29;10479;-65
2023/12/30 08:28:24;;;;;;;;;0.00;0.00;;;;;7.47;76.61;101119.03;4930866;29;10474;-64
2023/12/30 08:30:53;;;;;;;;;0.00;0.00;;;;;7.49;76.68;101125.88;4932186;29;10710;-65
2023/12/30 08:33:21;;;;;;;;;0.00;0.00;;;;;7.51;77.40;101133.78;4932202;29;10522;-64
2023/12/30 08:35:48;;;;;;;;;1.00;1.00;;;;;7.50;76.74;101140.13;4932382;29;10520;-64
2023/12/30 08:38:16;;;;;;;;;0.00;0.00;;;;;7.50;76.82;101134.78;4930774;29;10603;-64
2023/12/30 08:40:43;;;;;;;;;0.00;0.00;;;;;7.50;76.88;101146.34;4935109;29;10462;-64
2023/12/30 08:43:11;;;;;;;;;0.00;0.00;;;;;7.50;77.24;101145.50;4931837;28;10477;-63
2023/12/30 08:45:38;;;;;;;;;0.25;0.25;;;;;7.49;77.34;101141.97;4934468;29;10540;-65
2023/12/30 08:48:05;;;;;;;;;0.00;0.00;;;;;7.49;77.30;101146.47;4915632;29;10612;-65
2023/12/30 08:50:32;;;;;;;;;0.25;0.25;;;;;7.48;77.54;101144.81;4930973;29;10669;-65
2023/12/30 08:52:58;;;;;;;;;0.50;0.00;;;;;7.44;77.36;101145.13;4934098;29;10652;-66
2023/12/30 08:55:25;;;;;;;;;0.00;0.00;;;;;7.38;77.88;101142.31;4937420;29;10575;-65
2023/12/30 08:57:52;;;;;;;;;1.00;0.00;;;;;7.32;77.90;101138.44;4931163;29;10509;-65
2023/12/30 09:00:19;;;;;;;;;2.00;2.00;;;;;7.32;77.88;101146.47;4930749;29;10697;-65
2023/12/30 09:02:48;;;;;;;;;4.75;0.75;;;;;7.30;77.73;101140.44;4923289;29;10643;-65
2023/12/30 09:05:19;;;;;;;;;1.00;1.00;;;;;7.29;78.29;101140.59;4934798;29;10584;-65
2023/12/30 09:07:48;;;;;;;;;0.00;0.00;;;;;7.31;78.77;101147.47;4931236;29;10603;-65
2023/12/30 09:10:19;;;;;;;;;2.00;1.00;;;;;7.32;78.47;101148.31;4927875;28;10678;-66
2023/12/30 09:12:46;;;;;;;;;0.00;0.00;;;;;7.33;78.74;101145.47;4936860;29;10536;-64
2023/12/30 09:15:12;;;;;;;;;1.00;1.00;;;;;7.34;78.87;101136.44;4932142;29;10748;-64
2023/12/30 09:17:39;;;;;;;;;2.00;0.50;;;;;7.38;79.10;101145.81;4929120;29;10673;-64
2023/12/30 09:20:06;;;;;;;;;0.00;0.00;;;;;7.32;79.47;101156.34;4935516;28;10620;-64
2023/12/30 09:22:32;;;;;;;;;2.25;1.00;;;;;7.26;78.88;101149.81;4928920;29;10754;-63
2023/12/30 09:25:00;;;;;;;;;1.25;1.00;;;;;7.29;79.75;101157.53;4933109;29;10620;-64
2023/12/30 09:27:26;;;;;;;;;1.25;1.25;;;;;7.22;79.83;101161.84;4929947;28;10524;-65
2023/12/30 09:29:53;;;;;;;;;6.00;1.00;;;;;7.25;80.86;101164.22;4932859;29;10624;-65
2023/12/30 09:32:20;;;;;;;;;2.00;0.25;;;;;7.24;80.74;101162.50;4928264;29;10746;-65
2023/12/30 09:34:46;;;;;;;;;1.00;1.00;;;;;7.23;80.93;101157.34;4929966;29;10638;-63
2023/12/30 09:37:14;;;;;;;;;1.50;1.50;;;;;7.23;81.17;101162.69;4930398;29;10722;-65
2023/12/30 09:39:42;;;;;;;;;1.00;1.00;;;;;7.25;81.45;101158.00;4930592;29;10630;-65
2023/12/30 09:42:09;;;;;;;;;2.00;1.00;;;;;7.25;81.63;101155.31;4936802;29;10560;-65
2023/12/30 09:44:37;;;;;;;;;4.25;1.75;;;;;7.26;81.77;101157.03;4931481;29;10720;-65
2023/12/30 09:47:07;;;;;;;;;2.75;1.00;;;;;7.29;82.01;101148.63;4924525;28;10759;-66
2023/12/30 09:49:37;;;;;;;;;2.50;1.00;;;;;7.25;82.74;101156.19;4938661;28;11421;-65
2023/12/30 09:52:06;;;;;;;;;1.00;0.50;;;;;7.32;83.21;101146.47;4933452;29;10818;-65
2023/12/30 09:54:34;;;;;;;;;2.75;1.00;;;;;7.29;82.93;101149.50;4924566;29;10482;-64
2023/12/30 09:57:14;;;;;;;;;1.00;1.00;;;;;7.34;83.38;101154.34;4924527;29;10801;-65
2023/12/30 09:59:41;;;;;;;;;1.00;0.25;;;;;7.35;83.44;101156.03;4932372;29;11281;-64
2023/12/30 10:02:09;;;;;;;;;1.75;0.25;;;;;7.43;84.37;101162.22;4928427;28;13512;-65
2023/12/30 10:04:37;;;;;;;;;0.50;0.50;;;;;7.42;84.28;101160.56;4936008;28;10699;-66
2023/12/30 10:07:04;;;;;;;;;2.00;0.75;;;;;7.41;84.76;101166.91;4933422;28;10703;-66
2023/12/30 10:09:32;;;;;;;;;3.00;1.75;;;;;7.50;85.20;101172.28;4938787;28;11387;-64
2023/12/30 10:11:58;;;;;;;;;4.00;0.50;;;;;7.57;85.34;101186.66;4928732;29;10605;-64
2023/12/30 10:14:25;;;;;;;;;1.00;1.00;;;;;7.55;84.75;101181.47;4933305;29;10616;-65
2023/12/30 10:16:52;;;;;;;;;1.25;1.00;;;;;7.53;85.28;101180.81;4933480;29;11305;-65
2023/12/30 10:19:18;;;;;;;;;1.00;0.25;;;;;7.49;85.27;101176.78;4938279;29;10707;-66
2023/12/30 10:21:45;;;;;;;;;1.00;1.00;;;;;7.46;85.51;101176.28;4933187;29;10766;-65
2023/12/30 10:24:14;;;;;;;;;2.00;2.00;;;;;7.46;86.49;101187.00;4930665;29;10458;-65
2023/12/30 10:26:42;;;;;;;;;2.00;0.00;;;;;7.47;86.48;101177.97;4928761;29;10544;-64
2023/12/30 10:29:10;;;;;;;;;1.00;1.00;;;;;7.49;86.43;101186.66;4932846;29;10413;-65
2023/12/30 10:31:37;;;;;;;;;2.00;1.00;;;;;7.49;87.06;101175.94;4929928;29;10609;-67
2023/12/30 10:34:05;;;;;;;;;2.75;2.00;;;;;7.49;86.97;101179.44;4930841;29;10683;-65
2023/12/30 10:36:32;;;;;;;;;1.25;1.00;;;;;7.47;87.59;101175.28;4930129;29;10465;-66
2023/12/30 10:39:00;;;;;;;;;1.00;1.00;;;;;7.53;87.78;101174.59;4931412;29;10742;-65
2023/12/30 10:41:27;;;;;;;;;5.75;1.00;;;;;7.57;88.09;101166.06;4930896;28;11859;-65
2023/12/30 10:43:53;;;;;;;;;1.50;1.50;;;;;7.62;87.78;101161.06;4933922;29;10477;-65
2023/12/30 10:46:25;;;;;;;;;0.00;0.00;;;;;7.69;87.73;101156.69;4931373;29;11232;-65
2023/12/30 10:48:56;;;;;;;;;5.00;0.00;;;;;7.67;87.79;101145.31;4934702;29;11222;-65
2023/12/30 10:51:25;;;;;;;;;3.00;1.00;;;;;7.71;87.37;101153.03;4930094;29;10458;-63
2023/12/30 10:54:21;;;;;;;;;1.00;0.25;;;;;7.71;87.72;101145.81;4934423;29;10540;-65
2023/12/30 10:56:57;;;;;;;;;1.00;1.00;;;;;7.74;87.68;101144.63;4924574;29;10377;-66
2023/12/30 10:59:27;;;;;;;;;2.75;2.00;;;;;7.78;87.75;101145.97;4932288;28;10519;-66
2023/12/30 11:01:54;;;;;;;;;1.50;1.50;;;;;7.88;90.49;101136.75;4934177;29;10477;-65
2023/12/30 11:04:22;;;;;;;;;4.50;2.00;;;;;8.04;89.34;101143.09;4929901;29;11152;-66
2023/12/30 11:06:55;;;;;;;;;1.00;1.00;;;;;8.03;88.11;101136.91;4932203;29;10311;-66
2023/12/30 11:09:24;;;;;;;;;5.00;1.00;;;;;8.07;87.61;101137.41;4931957;29;10584;-66
2023/12/30 11:11:52;;;;;;;;;4.00;3.00;;;;;8.03;87.90;101144.97;4932925;29;10591;-66
2023/12/30 11:14:20;;;;;;;;;1.00;1.00;;;;;8.06;87.39;101135.72;4926279;29;10543;-66
2023/12/30 11:16:52;;;;;;;;;2.00;1.00;;;;;8.04;87.81;101138.59;4933500;29;10479;-65
2023/12/30 11:19:29;;;;;;;;;1.00;1.00;;;;;8.04;88.01;101122.50;4933465;29;10430;-65
2023/12/30 11:22:01;;;;;;;;;1.75;1.75;;;;;8.10;87.86;101129.88;4931102;29;10326;-66
2023/12/30 11:24:29;;;;;;;;;2.00;2.00;;;;;8.10;87.54;101129.00;4935103;28;10340;-66
2023/12/30 11:26:56;;;;;;;;;5.00;2.00;;;;;8.10;87.54;101134.38;4929396;29;10644;-65
2023/12/30 11:29:25;;;;;;;;;2.00;1.00;;;;;8.13;87.28;101142.09;4932280;28;10414;-65
2023/12/30 11:31:56;;;;;;;;;5.00;1.00;;;;;8.13;87.29;101128.66;4932723;29;11141;-65
2023/12/30 11:34:26;;;;;;;;;2.75;1.50;;;;;8.13;87.88;101131.34;4931665;29;10320;-66
2023/12/30 11:36:57;;;;;;;;;1.75;1.00;;;;;8.20;87.91;101132.34;4933082;29;11073;-65